Time,TemperatureF,DewpointF,PressureIn,WindDirection,WindDirectionDegrees,WindSpeedMPH,WindSpeedGustMPH,Humidity,HourlyPrecipIn,Conditions,Clouds,dailyrainin,SoftwareType,DateUTC
2013-04-02 00:00:00,46.7,46.2,30.18,SSW,205,0.0,5.0,98,0.00,,,0.00,Wunderground v.1.15,2013-04-02 07:00:00,
2013-04-02 00:05:00,46.7,46.2,30.18,SSW,205,0.0,5.0,98,0.00,,,0.00,Wunderground v.1.15,2013-04-02 07:05:00,
2013-04-02 00:11:00,46.6,46.1,30.18,SSW,205,0.0,2.0,98,0.00,,,0.00,Wunderground v.1.15,2013-04-02 07:11:00,
2013-04-02 00:16:00,46.6,46.1,30.18,SSW,205,1.0,2.0,98,0.00,,,0.00,Wunderground v.1.15,2013-04-02 07:16:00,
2013-04-02 00:21:00,46.7,46.2,30.19,SSW,205,1.0,1.0,98,0.00,,,0.00,Wunderground v.1.15,2013-04-02 07:21:00,
2013-04-02 00:26:00,46.8,46.3,30.19,SSW,205,0.0,2.0,98,0.00,,,0.00,Wunderground v.1.15,2013-04-02 07:26:00,
2013-04-02 00:31:00,46.9,46.4,30.19,SSW,205,1.0,1.0,98,0.00,,,0.00,Wunderground v.1.15,2013-04-02 07:31:00,
2013-04-02 00:37:00,46.8,46.3,30.19,SSW,205,1.0,1.0,98,0.00,,,0.00,Wunderground v.1.15,2013-04-02 07:37:00,
2013-04-02 00:43:00,46.7,46.2,30.19,SSW,205,0.0,2.0,98,0.00,,,0.00,Wunderground v.1.15,2013-04-02 07:43:00,
2013-04-02 00:48:00,46.8,46.3,30.19,SSW,205,1.0,2.0,98,0.00,,,0.00,Wunderground v.1.15,2013-04-02 07:48:00,
2013-04-02 00:53:00,46.8,46.3,30.20,SSW,205,2.0,2.0,98,0.00,,,0.00,Wunderground v.1.15,2013-04-02 07:53:00,
2013-04-02 01:00:00,46.7,46.2,30.19,SSW,205,2.0,2.0,98,0.00,,,0.00,Wunderground v.1.15,2013-04-02 08:00:00,
2013-04-02 01:06:00,46.7,46.2,30.19,SSW,205,2.0,4.0,98,0.00,,,0.00,Wunderground v.1.15,2013-04-02 08:06:00,
2013-04-02 01:13:00,46.7,46.2,30.19,SSW,205,2.0,4.0,98,0.00,,,0.00,Wunderground v.1.15,2013-04-02 08:13:00,
2013-04-02 01:18:00,46.7,46.2,30.19,SSW,205,2.0,4.0,98,0.00,,,0.00,Wunderground v.1.15,2013-04-02 08:18:00,
2013-04-02 01:24:00,46.8,46.3,30.20,SSW,205,2.0,4.0,98,0.00,,,0.00,Wunderground v.1.15,2013-04-02 08:24:00,
2013-04-02 01:30:00,46.7,46.2,30.20,SSW,205,2.0,4.0,98,0.00,,,0.00,Wunderground v.1.15,2013-04-02 08:30:00,
2013-04-02 01:35:00,46.7,46.2,30.20,SSW,205,1.0,4.0,98,0.00,,,0.00,Wunderground v.1.15,2013-04-02 08:35:00,
2013-04-02 01:41:00,46.7,46.2,30.20,SW,217,2.0,4.0,98,0.00,,,0.00,Wunderground v.1.15,2013-04-02 08:41:00,
2013-04-02 01:46:00,46.6,46.1,30.21,SW,236,3.0,4.0,98,0.00,,,0.00,Wunderground v.1.15,2013-04-02 08:46:00,
2013-04-02 01:53:00,46.4,45.9,30.21,WSW,241,4.0,6.0,98,0.00,,,0.00,Wunderground v.1.15,2013-04-02 08:53:00,
2013-04-02 01:59:00,46.5,46.0,30.21,SW,233,5.0,8.0,98,0.00,,,0.00,Wunderground v.1.15,2013-04-02 08:59:00,
2013-04-02 02:04:00,46.5,46.2,30.21,SW,235,6.0,8.0,99,0.00,,,0.00,Wunderground v.1.15,2013-04-02 09:04:00,
2013-04-02 02:09:00,46.4,45.9,30.21,WSW,240,6.0,6.0,98,0.00,,,0.00,Wunderground v.1.15,2013-04-02 09:09:00,
2013-04-02 02:15:00,46.5,46.2,30.21,WSW,242,5.0,6.0,99,0.00,,,0.00,Wunderground v.1.15,2013-04-02 09:15:00,
2013-04-02 02:21:00,46.5,46.2,30.21,WSW,247,5.0,5.0,99,0.00,,,0.00,Wunderground v.1.15,2013-04-02 09:21:00,
2013-04-02 02:27:00,46.5,46.2,30.22,WSW,245,5.0,6.0,99,0.00,,,0.00,Wunderground v.1.15,2013-04-02 09:27:00,
2013-04-02 02:33:00,46.3,45.8,30.22,WSW,252,6.0,8.0,98,0.00,,,0.00,Wunderground v.1.15,2013-04-02 09:33:00,
2013-04-02 02:38:00,46.3,45.8,30.22,WSW,240,6.0,8.0,98,0.00,,,0.00,Wunderground v.1.15,2013-04-02 09:38:00,
2013-04-02 02:44:00,46.3,45.8,30.22,SW,228,5.0,7.0,98,0.00,,,0.00,Wunderground v.1.15,2013-04-02 09:44:00,
2013-04-02 02:50:00,46.2,45.9,30.22,SW,234,6.0,6.0,99,0.00,,,0.00,Wunderground v.1.15,2013-04-02 09:50:00,
2013-04-02 02:56:00,46.2,45.9,30.22,SW,225,6.0,7.0,99,0.00,,,0.00,Wunderground v.1.15,2013-04-02 09:56:00,
2013-04-02 03:02:00,46.2,45.9,30.22,SW,223,6.0,6.0,99,0.00,,,0.00,Wunderground v.1.15,2013-04-02 10:02:00,
2013-04-02 03:08:00,46.1,45.8,30.22,SW,223,6.0,8.0,99,0.00,,,0.00,Wunderground v.1.15,2013-04-02 10:08:00,
2013-04-02 03:14:00,46.1,45.8,30.22,SW,223,6.0,7.0,99,0.00,,,0.00,Wunderground v.1.15,2013-04-02 10:14:00,
2013-04-02 03:19:00,46.0,45.7,30.22,SW,223,6.0,7.0,99,0.00,,,0.00,Wunderground v.1.15,2013-04-02 10:19:00,
2013-04-02 03:25:00,46.1,45.8,30.22,SW,224,6.0,7.0,99,0.00,,,0.00,Wunderground v.1.15,2013-04-02 10:25:00,
2013-04-02 03:31:00,46.2,45.9,30.22,SW,224,4.0,5.0,99,0.00,,,0.00,Wunderground v.1.15,2013-04-02 10:31:00,
2013-04-02 03:37:00,46.2,45.9,30.22,SW,224,3.0,5.0,99,0.00,,,0.00,Wunderground v.1.15,2013-04-02 10:37:00,
2013-04-02 03:43:00,46.2,45.9,30.22,SW,224,1.0,4.0,99,0.00,,,0.00,Wunderground v.1.15,2013-04-02 10:43:00,
2013-04-02 03:48:00,46.2,45.9,30.22,SW,224,1.0,4.0,99,0.00,,,0.00,Wunderground v.1.15,2013-04-02 10:48:00,
2013-04-02 03:54:00,46.2,45.9,30.22,SW,224,2.0,4.0,99,0.00,,,0.00,Wunderground v.1.15,2013-04-02 10:54:00,
2013-04-02 04:00:00,46.2,45.9,30.22,SW,224,1.0,4.0,99,0.00,,,0.00,Wunderground v.1.15,2013-04-02 11:00:00,
2013-04-02 04:06:00,46.2,45.9,30.21,SW,224,1.0,4.0,99,0.00,,,0.00,Wunderground v.1.15,2013-04-02 11:06:00,
2013-04-02 04:11:00,46.1,45.8,30.21,SW,223,0.0,4.0,99,0.00,,,0.00,Wunderground v.1.15,2013-04-02 11:11:00,
2013-04-02 04:17:00,46.1,45.8,30.21,SSE,155,1.0,4.0,99,0.00,,,0.00,Wunderground v.1.15,2013-04-02 11:17:00,
2013-04-02 04:23:00,46.1,45.8,30.21,SSE,155,1.0,4.0,99,0.00,,,0.00,Wunderground v.1.15,2013-04-02 11:23:00,
2013-04-02 04:28:00,46.1,45.8,30.21,SSE,155,0.0,4.0,99,0.00,,,0.00,Wunderground v.1.15,2013-04-02 11:28:00,
2013-04-02 04:33:00,46.1,45.8,30.21,SSE,155,0.0,4.0,99,0.00,,,0.00,Wunderground v.1.15,2013-04-02 11:33:00,
2013-04-02 04:39:00,46.1,45.8,30.21,SSE,155,0.0,4.0,99,0.00,,,0.00,Wunderground v.1.15,2013-04-02 11:39:00,
2013-04-02 04:45:00,46.1,45.8,30.21,SSE,155,0.0,4.0,99,0.00,,,0.00,Wunderground v.1.15,2013-04-02 11:45:00,
2013-04-02 04:50:00,46.0,45.7,30.21,SSE,155,1.0,4.0,99,0.00,,,0.00,Wunderground v.1.15,2013-04-02 11:50:00,
2013-04-02 04:55:00,45.8,45.3,30.21,SE,130,2.0,4.0,98,0.00,,,0.00,Wunderground v.1.15,2013-04-02 11:55:00,
2013-04-02 05:00:00,45.8,45.3,30.20,ESE,123,3.0,4.0,98,0.00,,,0.00,Wunderground v.1.15,2013-04-02 12:00:00,
2013-04-02 05:06:00,45.7,45.2,30.20,ESE,115,3.0,4.0,98,0.00,,,0.00,Wunderground v.1.15,2013-04-02 12:06:00,
2013-04-02 05:11:00,45.6,45.1,30.20,ESE,115,2.0,4.0,98,0.00,,,0.00,Wunderground v.1.15,2013-04-02 12:11:00,
2013-04-02 05:16:00,45.5,45.0,30.20,ESE,115,2.0,4.0,98,0.00,,,0.00,Wunderground v.1.15,2013-04-02 12:16:00,
2013-04-02 05:23:00,45.4,45.1,30.20,ESE,115,1.0,4.0,99,0.00,,,0.00,Wunderground v.1.15,2013-04-02 12:23:00,
2013-04-02 05:28:00,45.4,45.1,30.20,ESE,115,0.0,4.0,99,0.00,,,0.00,Wunderground v.1.15,2013-04-02 12:28:00,
2013-04-02 05:34:00,45.5,45.2,30.20,ESE,115,1.0,4.0,99,0.00,,,0.00,Wunderground v.1.15,2013-04-02 12:34:00,
2013-04-02 05:40:00,45.5,45.2,30.20,ESE,115,1.0,1.0,99,0.00,,,0.00,Wunderground v.1.15,2013-04-02 12:40:00,
2013-04-02 05:46:00,45.7,45.4,30.20,ESE,109,1.0,4.0,99,0.00,,,0.00,Wunderground v.1.15,2013-04-02 12:46:00,
2013-04-02 05:51:00,45.7,45.2,30.20,ESE,109,3.0,4.0,98,0.00,,,0.00,Wunderground v.1.15,2013-04-02 12:51:00,
2013-04-02 05:57:00,45.7,45.2,30.20,ESE,109,3.0,4.0,98,0.00,,,0.00,Wunderground v.1.15,2013-04-02 12:57:00,
2013-04-02 06:02:00,45.7,45.2,30.19,ESE,109,2.0,4.0,98,0.00,,,0.00,Wunderground v.1.15,2013-04-02 13:02:00,
2013-04-02 06:08:00,45.7,45.2,30.20,ESE,104,3.0,4.0,98,0.00,,,0.00,Wunderground v.1.15,2013-04-02 13:08:00,
2013-04-02 06:14:00,45.7,45.2,30.19,ESE,104,3.0,4.0,98,0.00,,,0.00,Wunderground v.1.15,2013-04-02 13:14:00,
2013-04-02 06:19:00,45.8,45.3,30.19,ESE,103,2.0,4.0,98,0.00,,,0.00,Wunderground v.1.15,2013-04-02 13:19:00,
2013-04-02 06:25:00,45.8,45.3,30.19,ESE,102,2.0,4.0,98,0.00,,,0.00,Wunderground v.1.15,2013-04-02 13:25:00,
2013-04-02 06:30:00,45.8,45.3,30.19,East,100,2.0,4.0,98,0.00,,,0.00,Wunderground v.1.15,2013-04-02 13:30:00,
2013-04-02 06:36:00,45.9,45.4,30.19,East,100,2.0,4.0,98,0.00,,,0.00,Wunderground v.1.15,2013-04-02 13:36:00,
2013-04-02 06:42:00,45.9,45.4,30.18,East,100,1.0,4.0,98,0.00,,,0.00,Wunderground v.1.15,2013-04-02 13:42:00,
2013-04-02 06:48:00,46.0,45.7,30.18,East,100,1.0,4.0,99,0.00,,,0.00,Wunderground v.1.15,2013-04-02 13:48:00,
2013-04-02 06:53:00,46.0,45.7,30.18,East,100,1.0,5.0,99,0.00,,,0.00,Wunderground v.1.15,2013-04-02 13:53:00,
2013-04-02 06:58:00,46.0,45.7,30.18,East,98,3.0,5.0,99,0.00,,,0.00,Wunderground v.1.15,2013-04-02 13:58:00,
2013-04-02 07:03:00,45.9,45.4,30.18,East,98,4.0,4.0,98,0.00,,,0.00,Wunderground v.1.15,2013-04-02 14:03:00,
2013-04-02 07:09:00,45.9,45.4,30.18,East,94,3.0,5.0,98,0.00,,,0.00,Wunderground v.1.15,2013-04-02 14:09:00,
2013-04-02 07:14:00,45.9,45.4,30.18,East,93,4.0,6.0,98,0.00,,,0.00,Wunderground v.1.15,2013-04-02 14:14:00,
2013-04-02 07:20:00,45.9,45.6,30.18,East,93,4.0,4.0,99,0.00,,,0.00,Wunderground v.1.15,2013-04-02 14:20:00,
2013-04-02 07:25:00,46.0,45.7,30.18,East,93,2.0,4.0,99,0.00,,,0.00,Wunderground v.1.15,2013-04-02 14:25:00,
2013-04-02 07:31:00,46.2,45.9,30.19,East,93,1.0,4.0,99,0.00,,,0.00,Wunderground v.1.15,2013-04-02 14:31:00,
2013-04-02 07:36:00,46.3,46.0,30.19,East,93,1.0,4.0,99,0.00,,,0.00,Wunderground v.1.15,2013-04-02 14:36:00,
2013-04-02 07:42:00,46.5,46.2,30.19,East,93,1.0,4.0,99,0.00,,,0.00,Wunderground v.1.15,2013-04-02 14:42:00,
2013-04-02 07:48:00,46.6,46.3,30.19,East,93,1.0,4.0,99,0.00,,,0.00,Wunderground v.1.15,2013-04-02 14:48:00,
2013-04-02 07:53:00,46.6,46.3,30.19,East,93,2.0,4.0,99,0.00,,,0.00,Wunderground v.1.15,2013-04-02 14:53:00,
2013-04-02 07:58:00,46.7,46.4,30.19,East,93,2.0,4.0,99,0.00,,,0.00,Wunderground v.1.15,2013-04-02 14:58:00,
2013-04-02 08:04:00,46.8,46.5,30.19,East,93,1.0,4.0,99,0.00,,,0.00,Wunderground v.1.15,2013-04-02 15:04:00,
2013-04-02 08:09:00,47.0,46.7,30.19,East,93,1.0,4.0,99,0.00,,,0.00,Wunderground v.1.15,2013-04-02 15:09:00,
2013-04-02 08:15:00,47.1,46.8,30.20,East,93,0.0,4.0,99,0.00,,,0.00,Wunderground v.1.15,2013-04-02 15:15:00,
2013-04-02 08:20:00,47.1,46.8,30.19,East,93,0.0,4.0,99,0.00,,,0.00,Wunderground v.1.15,2013-04-02 15:20:00,
2013-04-02 08:26:00,47.1,46.6,30.20,East,93,1.0,4.0,98,0.00,,,0.00,Wunderground v.1.15,2013-04-02 15:26:00,
2013-04-02 08:32:00,47.2,46.9,30.20,East,93,1.0,4.0,99,0.00,,,0.00,Wunderground v.1.15,2013-04-02 15:32:00,
2013-04-02 08:37:00,47.3,47.0,30.20,East,93,1.0,4.0,99,0.00,,,0.00,Wunderground v.1.15,2013-04-02 15:37:00,
2013-04-02 08:42:00,47.2,46.9,30.20,East,93,2.0,4.0,99,0.00,,,0.00,Wunderground v.1.15,2013-04-02 15:42:00,
2013-04-02 08:49:00,47.2,46.9,30.20,East,93,2.0,4.0,99,0.00,,,0.00,Wunderground v.1.15,2013-04-02 15:49:00,
2013-04-02 08:55:00,47.6,47.3,30.20,East,93,1.0,4.0,99,0.00,,,0.00,Wunderground v.1.15,2013-04-02 15:55:00,
2013-04-02 09:00:00,47.8,47.5,30.20,East,93,0.0,4.0,99,0.00,,,0.00,Wunderground v.1.15,2013-04-02 16:00:00,
2013-04-02 09:06:00,47.6,47.1,30.20,East,93,0.0,4.0,98,0.00,,,0.00,Wunderground v.1.15,2013-04-02 16:06:00,
2013-04-02 09:11:00,47.6,47.1,30.20,East,93,0.0,4.0,98,0.00,,,0.00,Wunderground v.1.15,2013-04-02 16:11:00,
2013-04-02 09:16:00,47.7,47.2,30.20,East,93,1.0,4.0,98,0.00,,,0.00,Wunderground v.1.15,2013-04-02 16:16:00,
2013-04-02 09:22:00,47.9,47.6,30.20,East,93,1.0,4.0,99,0.00,,,0.00,Wunderground v.1.15,2013-04-02 16:22:00,
2013-04-02 09:28:00,47.9,47.6,30.20,East,93,1.0,4.0,99,0.00,,,0.00,Wunderground v.1.15,2013-04-02 16:28:00,
2013-04-02 09:34:00,48.0,47.7,30.20,East,93,2.0,5.0,99,0.00,,,0.00,Wunderground v.1.15,2013-04-02 16:34:00,
2013-04-02 09:40:00,48.0,47.5,30.20,East,93,3.0,4.0,98,0.00,,,0.00,Wunderground v.1.15,2013-04-02 16:40:00,
2013-04-02 09:45:00,47.8,47.3,30.21,East,93,2.0,4.0,98,0.00,,,0.00,Wunderground v.1.15,2013-04-02 16:45:00,
2013-04-02 09:51:00,47.7,47.2,30.21,East,93,2.0,5.0,98,0.00,,,0.00,Wunderground v.1.15,2013-04-02 16:51:00,
2013-04-02 09:57:00,47.7,47.2,30.21,East,93,3.0,5.0,98,0.00,,,0.00,Wunderground v.1.15,2013-04-02 16:57:00,
2013-04-02 10:04:00,47.7,47.2,30.21,East,93,3.0,4.0,98,0.00,,,0.00,Wunderground v.1.15,2013-04-02 17:04:00,
2013-04-02 10:09:00,47.7,47.2,30.21,East,85,3.0,5.0,98,0.00,,,0.00,Wunderground v.1.15,2013-04-02 17:09:00,
2013-04-02 10:14:00,47.7,47.2,30.21,East,85,2.0,4.0,98,0.00,,,0.00,Wunderground v.1.15,2013-04-02 17:14:00,
2013-04-02 10:21:00,47.9,47.4,30.22,East,84,3.0,4.0,98,0.00,,,0.00,Wunderground v.1.15,2013-04-02 17:21:00,
2013-04-02 10:26:00,47.9,47.4,30.22,ENE,76,3.0,5.0,98,0.00,,,0.00,Wunderground v.1.15,2013-04-02 17:26:00,
2013-04-02 10:33:00,47.4,46.9,30.22,NW,324,4.0,6.0,98,0.00,,,0.00,Wunderground v.1.15,2013-04-02 17:33:00,
2013-04-02 10:38:00,47.0,46.5,30.22,NW,323,6.0,7.0,98,0.00,,,0.00,Wunderground v.1.15,2013-04-02 17:38:00,
2013-04-02 10:43:00,46.8,46.3,30.22,NW,325,6.0,6.0,98,0.00,,,0.00,Wunderground v.1.15,2013-04-02 17:43:00,
2013-04-02 10:49:00,46.6,46.1,30.23,NNW,337,5.0,6.0,98,0.00,,,0.00,Wunderground v.1.15,2013-04-02 17:49:00,
2013-04-02 10:55:00,46.8,46.3,30.23,NNW,336,4.0,5.0,98,0.00,,,0.00,Wunderground v.1.15,2013-04-02 17:55:00,
2013-04-02 11:01:00,46.9,46.4,30.23,NNW,336,3.0,4.0,98,0.00,,,0.00,Wunderground v.1.15,2013-04-02 18:01:00,
2013-04-02 11:07:00,46.8,46.3,30.23,NNW,336,3.0,4.0,98,0.00,,,0.00,Wunderground v.1.15,2013-04-02 18:07:00,
2013-04-02 11:13:00,47.0,46.5,30.23,NNW,336,3.0,4.0,98,0.00,,,0.00,Wunderground v.1.15,2013-04-02 18:13:00,
2013-04-02 11:18:00,47.1,46.6,30.23,NNW,336,3.0,4.0,98,0.00,,,0.00,Wunderground v.1.15,2013-04-02 18:18:00,
2013-04-02 11:24:00,46.9,46.4,30.23,NNW,336,4.0,5.0,98,0.00,,,0.00,Wunderground v.1.15,2013-04-02 18:24:00,
2013-04-02 11:29:00,47.0,46.5,30.22,NNW,336,4.0,4.0,98,0.00,,,0.00,Wunderground v.1.15,2013-04-02 18:29:00,
2013-04-02 11:35:00,47.2,46.7,30.22,NNW,336,3.0,4.0,98,0.00,,,0.00,Wunderground v.1.15,2013-04-02 18:35:00,
2013-04-02 11:40:00,46.9,46.4,30.23,NNW,338,4.0,6.0,98,0.00,,,0.00,Wunderground v.1.15,2013-04-02 18:40:00,
2013-04-02 11:45:00,46.9,46.4,30.23,NNW,338,5.0,6.0,98,0.00,,,0.00,Wunderground v.1.15,2013-04-02 18:45:00,
2013-04-02 11:51:00,46.7,46.2,30.23,NNW,339,5.0,5.0,98,0.00,,,0.00,Wunderground v.1.15,2013-04-02 18:51:00,
2013-04-02 11:58:00,47.0,46.5,30.23,NNW,339,4.0,5.0,98,0.00,,,0.00,Wunderground v.1.15,2013-04-02 18:58:00,
2013-04-02 12:03:00,47.2,46.7,30.23,NNW,340,4.0,6.0,98,0.00,,,0.00,Wunderground v.1.15,2013-04-02 19:03:00,
2013-04-02 12:09:00,47.4,46.9,30.23,NNW,340,4.0,6.0,98,0.00,,,0.00,Wunderground v.1.15,2013-04-02 19:09:00,
2013-04-02 12:14:00,47.4,46.9,30.22,NNW,338,4.0,5.0,98,0.00,,,0.00,Wunderground v.1.15,2013-04-02 19:14:00,
2013-04-02 12:19:00,47.2,46.7,30.23,NNW,338,4.0,4.0,98,0.00,,,0.00,Wunderground v.1.15,2013-04-02 19:19:00,
2013-04-02 12:25:00,47.4,46.9,30.23,NNW,336,4.0,4.0,98,0.00,,,0.00,Wunderground v.1.15,2013-04-02 19:25:00,
2013-04-02 12:30:00,47.5,47.0,30.22,NNW,336,3.0,4.0,98,0.00,,,0.00,Wunderground v.1.15,2013-04-02 19:30:00,
2013-04-02 12:36:00,47.2,46.7,30.22,NNW,336,4.0,5.0,98,0.00,,,0.00,Wunderground v.1.15,2013-04-02 19:36:00,
2013-04-02 12:42:00,47.5,47.0,30.22,NNW,336,4.0,4.0,98,0.00,,,0.00,Wunderground v.1.15,2013-04-02 19:42:00,
2013-04-02 12:48:00,47.4,46.9,30.22,NNW,336,4.0,6.0,98,0.00,,,0.00,Wunderground v.1.15,2013-04-02 19:48:00,
2013-04-02 12:54:00,47.6,47.1,30.22,NNW,336,4.0,6.0,98,0.00,,,0.00,Wunderground v.1.15,2013-04-02 19:54:00,
2013-04-02 13:00:00,47.7,47.2,30.22,NNW,336,4.0,6.0,98,0.00,,,0.00,Wunderground v.1.15,2013-04-02 20:00:00,
2013-04-02 13:06:00,47.5,47.0,30.21,NNW,336,5.0,6.0,98,0.00,,,0.00,Wunderground v.1.15,2013-04-02 20:06:00,
2013-04-02 13:11:00,47.8,47.3,30.21,NNW,336,4.0,4.0,98,0.00,,,0.00,Wunderground v.1.15,2013-04-02 20:11:00,
2013-04-02 13:16:00,47.8,47.3,30.21,NNW,336,4.0,4.0,98,0.00,,,0.00,Wunderground v.1.15,2013-04-02 20:16:00,
2013-04-02 13:22:00,47.7,47.2,30.20,NNW,336,4.0,5.0,98,0.00,,,0.00,Wunderground v.1.15,2013-04-02 20:22:00,
2013-04-02 13:28:00,47.7,46.9,30.21,NNW,336,5.0,7.0,97,0.00,,,0.00,Wunderground v.1.15,2013-04-02 20:28:00,
2013-04-02 13:33:00,47.6,46.8,30.20,NNW,338,5.0,5.0,97,0.00,,,0.00,Wunderground v.1.15,2013-04-02 20:33:00,
2013-04-02 13:38:00,47.6,46.8,30.20,NNW,345,5.0,7.0,97,0.00,,,0.00,Wunderground v.1.15,2013-04-02 20:38:00,
2013-04-02 13:43:00,47.9,47.4,30.20,NNW,346,5.0,6.0,98,0.00,,,0.00,Wunderground v.1.15,2013-04-02 20:43:00,
2013-04-02 13:49:00,47.8,47.0,30.20,NNW,347,5.0,6.0,97,0.00,,,0.00,Wunderground v.1.15,2013-04-02 20:49:00,
2013-04-02 13:56:00,47.8,47.0,30.20,NNW,348,5.0,7.0,97,0.00,,,0.00,Wunderground v.1.15,2013-04-02 20:56:00,
2013-04-02 14:01:00,47.9,47.1,30.20,North,349,6.0,7.0,97,0.00,,,0.00,Wunderground v.1.15,2013-04-02 21:01:00,
2013-04-02 14:06:00,48.0,47.2,30.19,NNW,348,6.0,7.0,97,0.00,,,0.00,Wunderground v.1.15,2013-04-02 21:06:00,
2013-04-02 14:12:00,48.0,47.2,30.20,NNW,346,6.0,6.0,97,0.00,,,0.00,Wunderground v.1.15,2013-04-02 21:12:00,
2013-04-02 14:18:00,48.3,47.5,30.19,NNW,335,5.0,6.0,97,0.00,,,0.00,Wunderground v.1.15,2013-04-02 21:18:00,
2013-04-02 14:23:00,48.1,47.3,30.19,NNW,342,5.0,7.0,97,0.00,,,0.00,Wunderground v.1.15,2013-04-02 21:23:00,
2013-04-02 14:28:00,48.0,47.2,30.19,NNW,344,5.0,7.0,97,0.00,,,0.00,Wunderground v.1.15,2013-04-02 21:28:00,
2013-04-02 14:33:00,48.1,47.3,30.19,NNW,337,6.0,8.0,97,0.00,,,0.00,Wunderground v.1.15,2013-04-02 21:33:00,
2013-04-02 14:38:00,48.1,47.3,30.19,North,355,5.0,8.0,97,0.00,,,0.00,Wunderground v.1.15,2013-04-02 21:38:00,
2013-04-02 14:45:00,48.0,46.9,30.18,North,350,6.0,9.0,96,0.00,,,0.00,Wunderground v.1.15,2013-04-02 21:45:00,
2013-04-02 14:51:00,48.1,47.3,30.18,North,355,7.0,7.0,97,0.00,,,0.01,Wunderground v.1.15,2013-04-02 21:51:00,
2013-04-02 14:58:00,48.1,47.3,30.18,North,350,8.0,12.0,97,0.00,,,0.01,Wunderground v.1.15,2013-04-02 21:58:00,
2013-04-02 15:03:00,47.9,46.8,30.18,NNW,344,8.0,12.0,96,0.00,,,0.01,Wunderground v.1.15,2013-04-02 22:03:00,
2013-04-02 15:08:00,48.1,47.0,30.17,NNW,345,8.0,12.0,96,0.00,,,0.01,Wunderground v.1.15,2013-04-02 22:08:00,
2013-04-02 15:13:00,47.9,46.8,30.17,North,355,8.0,10.0,96,0.00,,,0.01,Wunderground v.1.15,2013-04-02 22:13:00,
2013-04-02 15:19:00,47.6,46.5,30.17,North,360,9.0,10.0,96,0.00,,,0.01,Wunderground v.1.15,2013-04-02 22:19:00,
2013-04-02 15:25:00,47.5,46.7,30.17,North,355,9.0,9.0,97,0.00,,,0.01,Wunderground v.1.15,2013-04-02 22:25:00,
2013-04-02 15:30:00,47.5,46.7,30.17,North,355,8.0,10.0,97,0.00,,,0.01,Wunderground v.1.15,2013-04-02 22:30:00,
2013-04-02 15:38:00,47.1,46.3,30.17,North,355,8.0,10.0,97,0.00,,,0.01,Wunderground v.1.15,2013-04-02 22:38:00,
2013-04-02 15:45:00,47.6,46.8,30.18,NNW,329,6.0,9.0,97,0.00,,,0.01,Wunderground v.1.15,2013-04-02 22:45:00,
2013-04-02 15:50:00,47.8,47.0,30.17,NNW,340,6.0,6.0,97,0.00,,,0.01,Wunderground v.1.15,2013-04-02 22:50:00,
2013-04-02 15:56:00,47.4,46.6,30.17,North,355,7.0,9.0,97,0.00,,,0.01,Wunderground v.1.15,2013-04-02 22:56:00,
2013-04-02 16:02:00,47.5,46.7,30.17,NNW,343,7.0,7.0,97,0.00,,,0.01,Wunderground v.1.15,2013-04-02 23:02:00,
2013-04-02 16:07:00,47.6,46.8,30.17,NNW,343,6.0,7.0,97,0.00,,,0.01,Wunderground v.1.15,2013-04-02 23:07:00,
2013-04-02 16:13:00,47.7,46.9,30.17,NW,323,6.0,9.0,97,0.00,,,0.01,Wunderground v.1.15,2013-04-02 23:13:00,
2013-04-02 16:18:00,47.6,46.5,30.18,NNW,335,6.0,9.0,96,0.00,,,0.01,Wunderground v.1.15,2013-04-02 23:18:00,
2013-04-02 16:24:00,47.5,46.7,30.18,North,355,6.0,9.0,97,0.00,,,0.01,Wunderground v.1.15,2013-04-02 23:24:00,
2013-04-02 16:29:00,47.8,47.0,30.17,NNW,347,6.0,6.0,97,0.00,,,0.01,Wunderground v.1.15,2013-04-02 23:29:00,
2013-04-02 16:38:00,47.9,47.1,30.17,NW,308,6.0,8.0,97,0.00,,,0.01,Wunderground v.1.15,2013-04-02 23:38:00,
2013-04-02 16:43:00,47.9,46.8,30.17,North,350,5.0,10.0,96,0.00,,,0.01,Wunderground v.1.15,2013-04-02 23:43:00,
2013-04-02 16:48:00,47.6,46.8,30.17,NNW,344,6.0,10.0,97,0.00,,,0.01,Wunderground v.1.15,2013-04-02 23:48:00,
2013-04-02 16:53:00,47.5,46.4,30.17,North,355,6.0,8.0,96,0.00,,,0.01,Wunderground v.1.15,2013-04-02 23:53:00,
2013-04-02 16:59:00,47.4,46.6,30.16,North,355,6.0,9.0,97,0.00,,,0.01,Wunderground v.1.15,2013-04-02 23:59:00,
2013-04-02 17:04:00,47.3,46.5,30.17,NNW,338,6.0,6.0,97,0.00,,,0.01,Wunderground v.1.15,2013-04-03 00:04:00,
2013-04-02 17:09:00,47.4,46.6,30.17,NW,322,5.0,8.0,97,0.00,,,0.01,Wunderground v.1.15,2013-04-03 00:09:00,
2013-04-02 17:15:00,47.1,46.3,30.17,NNW,344,6.0,10.0,97,0.00,,,0.01,Wunderground v.1.15,2013-04-03 00:15:00,
2013-04-02 17:21:00,47.0,46.2,30.16,NW,318,7.0,7.0,97,0.00,,,0.01,Wunderground v.1.15,2013-04-03 00:21:00,
2013-04-02 17:26:00,46.9,46.1,30.16,NNW,335,6.0,8.0,97,0.00,,,0.01,Wunderground v.1.15,2013-04-03 00:26:00,
2013-04-02 17:32:00,46.9,46.1,30.17,NNW,344,7.0,7.0,97,0.00,,,0.01,Wunderground v.1.15,2013-04-03 00:32:00,
2013-04-02 17:41:00,46.8,46.0,30.17,NNW,343,7.0,7.0,97,0.00,,,0.01,Wunderground v.1.15,2013-04-03 00:41:00,
2013-04-02 17:46:00,46.7,45.9,30.17,NNW,327,6.0,7.0,97,0.00,,,0.01,Wunderground v.1.15,2013-04-03 00:46:00,
2013-04-02 17:53:00,46.6,45.8,30.17,NNW,348,6.0,6.0,97,0.00,,,0.01,Wunderground v.1.15,2013-04-03 00:53:00,
2013-04-02 17:58:00,46.7,45.9,30.18,NNW,342,5.0,6.0,97,0.00,,,0.01,Wunderground v.1.15,2013-04-03 00:58:00,
2013-04-02 18:04:00,46.5,45.7,30.18,North,355,5.0,7.0,97,0.00,,,0.01,Wunderground v.1.15,2013-04-03 01:04:00,
2013-04-02 18:10:00,46.4,45.6,30.18,NNW,327,5.0,6.0,97,0.00,,,0.01,Wunderground v.1.15,2013-04-03 01:10:00,
2013-04-02 18:15:00,46.5,45.7,30.17,NNW,340,5.0,8.0,97,0.00,,,0.01,Wunderground v.1.15,2013-04-03 01:15:00,
2013-04-02 18:22:00,46.6,45.8,30.17,NNW,344,5.0,6.0,97,0.00,,,0.01,Wunderground v.1.15,2013-04-03 01:22:00,
2013-04-02 18:27:00,46.5,45.7,30.17,NNW,345,5.0,8.0,97,0.00,,,0.01,Wunderground v.1.15,2013-04-03 01:27:00,
2013-04-02 18:33:00,46.5,45.7,30.17,North,355,7.0,8.0,97,0.00,,,0.01,Wunderground v.1.15,2013-04-03 01:33:00,
2013-04-02 18:39:00,46.4,45.9,30.17,North,350,6.0,8.0,98,0.00,,,0.01,Wunderground v.1.15,2013-04-03 01:39:00,
2013-04-02 18:45:00,46.4,45.6,30.17,North,355,6.0,10.0,97,0.00,,,0.01,Wunderground v.1.15,2013-04-03 01:45:00,
2013-04-02 18:51:00,46.2,45.7,30.17,North,355,7.0,8.0,98,0.00,,,0.01,Wunderground v.1.15,2013-04-03 01:51:00,
2013-04-02 18:57:00,46.4,45.9,30.16,NNE,15,5.0,8.0,98,0.00,,,0.01,Wunderground v.1.15,2013-04-03 01:57:00,
2013-04-02 19:02:00,46.4,45.9,30.16,North,355,3.0,7.0,98,0.00,,,0.01,Wunderground v.1.15,2013-04-03 02:02:00,
2013-04-02 19:08:00,46.3,45.8,30.16,North,5,6.0,8.0,98,0.00,,,0.01,Wunderground v.1.15,2013-04-03 02:08:00,
2013-04-02 19:14:00,46.3,45.8,30.16,NNE,17,6.0,8.0,98,0.00,,,0.01,Wunderground v.1.15,2013-04-03 02:14:00,
2013-04-02 19:20:00,46.3,45.8,30.16,NNE,27,5.0,5.0,98,0.00,,,0.01,Wunderground v.1.15,2013-04-03 02:20:00,
2013-04-02 19:25:00,46.1,45.6,30.16,North,360,5.0,7.0,98,0.00,,,0.01,Wunderground v.1.15,2013-04-03 02:25:00,
2013-04-02 19:31:00,46.1,45.6,30.17,North,360,6.0,8.0,98,0.00,,,0.01,Wunderground v.1.15,2013-04-03 02:31:00,
2013-04-02 19:36:00,46.2,45.7,30.16,North,355,6.0,8.0,98,0.00,,,0.01,Wunderground v.1.15,2013-04-03 02:36:00,
2013-04-02 19:42:00,46.4,45.9,30.16,NNE,18,6.0,6.0,98,0.00,,,0.01,Wunderground v.1.15,2013-04-03 02:42:00,
2013-04-02 19:48:00,46.2,45.7,30.16,North,360,4.0,9.0,98,0.00,,,0.01,Wunderground v.1.15,2013-04-03 02:48:00,
2013-04-02 19:53:00,46.3,45.8,30.16,NNE,13,5.0,6.0,98,0.00,,,0.01,Wunderground v.1.15,2013-04-03 02:53:00,
2013-04-02 19:59:00,46.3,45.8,30.16,North,360,5.0,9.0,98,0.00,,,0.01,Wunderground v.1.15,2013-04-03 02:59:00,
2013-04-02 20:04:00,46.4,45.9,30.16,North,360,6.0,9.0,98,0.00,,,0.01,Wunderground v.1.15,2013-04-03 03:04:00,
2013-04-02 20:09:00,46.3,45.8,30.16,North,360,7.0,7.0,98,0.00,,,0.01,Wunderground v.1.15,2013-04-03 03:09:00,
2013-04-02 20:15:00,46.4,45.9,30.16,North,355,6.0,9.0,98,0.00,,,0.01,Wunderground v.1.15,2013-04-03 03:15:00,
2013-04-02 20:21:00,46.5,46.0,30.16,NE,41,4.0,4.0,98,0.00,,,0.01,Wunderground v.1.15,2013-04-03 03:21:00,
2013-04-02 20:27:00,46.3,45.8,30.16,ENE,66,4.0,10.0,98,0.00,,,0.01,Wunderground v.1.15,2013-04-03 03:27:00,
2013-04-02 20:33:00,46.1,45.3,30.16,ENE,65,5.0,5.0,97,0.00,,,0.01,Wunderground v.1.15,2013-04-03 03:33:00,
2013-04-02 20:38:00,46.0,45.5,30.16,ENE,67,5.0,7.0,98,0.00,,,0.01,Wunderground v.1.15,2013-04-03 03:38:00,
2013-04-02 20:43:00,46.1,45.6,30.16,North,11,4.0,5.0,98,0.00,,,0.01,Wunderground v.1.15,2013-04-03 03:43:00,
2013-04-02 20:49:00,46.1,45.6,30.16,NE,56,3.0,4.0,98,0.00,,,0.01,Wunderground v.1.15,2013-04-03 03:49:00,
2013-04-02 20:55:00,46.0,45.5,30.16,ENE,57,4.0,6.0,98,0.00,,,0.01,Wunderground v.1.15,2013-04-03 03:55:00,
2013-04-02 21:01:00,46.1,45.6,30.16,ENE,57,4.0,4.0,98,0.00,,,0.01,Wunderground v.1.15,2013-04-03 04:01:00,
2013-04-02 21:03:00,46.1,45.6,30.16,ENE,57,4.0,4.0,98,0.00,,,0.01,Wunderground v.1.15,2013-04-03 04:03:00,
2013-04-02 21:04:00,46.1,45.6,30.16,ENE,59,4.0,7.0,98,0.00,,,0.01,Wunderground v.1.15,2013-04-03 04:04:00,
2013-04-02 21:10:00,46.2,45.7,30.17,ENE,61,5.0,5.0,98,0.00,,,0.01,Wunderground v.1.15,2013-04-03 04:10:00,
2013-04-02 21:15:00,46.2,45.7,30.17,ENE,61,3.0,5.0,98,0.00,,,0.01,Wunderground v.1.15,2013-04-03 04:15:00,
2013-04-02 21:20:00,46.1,45.6,30.17,ENE,61,3.0,7.0,98,0.00,,,0.01,Wunderground v.1.15,2013-04-03 04:20:00,
2013-04-02 21:25:00,46.1,45.6,30.17,ENE,61,4.0,7.0,98,0.00,,,0.01,Wunderground v.1.15,2013-04-03 04:25:00,
2013-04-02 21:31:00,46.0,45.5,30.17,ENE,61,4.0,4.0,98,0.00,,,0.01,Wunderground v.1.15,2013-04-03 04:31:00,
2013-04-02 21:36:00,46.0,45.5,30.17,ENE,61,4.0,4.0,98,0.00,,,0.01,Wunderground v.1.15,2013-04-03 04:36:00,
2013-04-02 21:42:00,46.1,45.6,30.17,ENE,61,3.0,4.0,98,0.00,,,0.01,Wunderground v.1.15,2013-04-03 04:42:00,
2013-04-02 21:48:00,46.1,45.6,30.17,ENE,61,3.0,4.0,98,0.00,,,0.01,Wunderground v.1.15,2013-04-03 04:48:00,
2013-04-02 21:53:00,46.0,45.5,30.17,ENE,61,3.0,4.0,98,0.00,,,0.01,Wunderground v.1.15,2013-04-03 04:53:00,
2013-04-02 21:59:00,46.0,45.5,30.17,NE,56,2.0,5.0,98,0.00,,,0.01,Wunderground v.1.15,2013-04-03 04:59:00,
2013-04-02 22:05:00,46.1,45.6,30.17,NE,56,3.0,5.0,98,0.00,,,0.01,Wunderground v.1.15,2013-04-03 05:05:00,
2013-04-02 22:10:00,46.1,45.6,30.17,NE,56,3.0,4.0,98,0.00,,,0.01,Wunderground v.1.15,2013-04-03 05:10:00,
2013-04-02 22:16:00,46.2,45.7,30.17,NE,56,3.0,4.0,98,0.00,,,0.01,Wunderground v.1.15,2013-04-03 05:16:00,
2013-04-02 22:21:00,46.2,45.7,30.17,NE,56,3.0,4.0,98,0.00,,,0.01,Wunderground v.1.15,2013-04-03 05:21:00,
2013-04-02 22:27:00,46.1,45.6,30.17,NE,55,3.0,5.0,98,0.00,,,0.01,Wunderground v.1.15,2013-04-03 05:27:00,
2013-04-02 22:33:00,46.2,45.7,30.17,NE,55,3.0,4.0,98,0.00,,,0.01,Wunderground v.1.15,2013-04-03 05:33:00,
2013-04-02 22:39:00,46.1,45.6,30.17,ENE,61,4.0,7.0,98,0.00,,,0.01,Wunderground v.1.15,2013-04-03 05:39:00,
2013-04-02 22:44:00,46.1,45.6,30.16,ENE,61,5.0,5.0,98,0.00,,,0.01,Wunderground v.1.15,2013-04-03 05:44:00,
2013-04-02 22:50:00,46.1,45.6,30.17,ENE,61,4.0,4.0,98,0.00,,,0.01,Wunderground v.1.15,2013-04-03 05:50:00,
2013-04-02 22:55:00,46.1,45.6,30.17,ENE,59,4.0,5.0,98,0.00,,,0.01,Wunderground v.1.15,2013-04-03 05:55:00,
2013-04-02 23:02:00,46.1,45.6,30.17,ENE,59,4.0,5.0,98,0.00,,,0.01,Wunderground v.1.15,2013-04-03 06:02:00,
2013-04-02 23:08:00,46.2,45.7,30.17,NE,53,3.0,5.0,98,0.00,,,0.01,Wunderground v.1.15,2013-04-03 06:08:00,
2013-04-02 23:13:00,46.1,45.6,30.17,NE,53,2.0,4.0,98,0.00,,,0.01,Wunderground v.1.15,2013-04-03 06:13:00,
2013-04-02 23:19:00,46.0,45.5,30.17,NE,53,2.0,4.0,98,0.00,,,0.01,Wunderground v.1.15,2013-04-03 06:19:00,
2013-04-02 23:24:00,46.0,45.5,30.17,NE,53,2.0,4.0,98,0.00,,,0.01,Wunderground v.1.15,2013-04-03 06:24:00,
2013-04-02 23:29:00,46.0,45.5,30.17,NE,53,2.0,4.0,98,0.00,,,0.01,Wunderground v.1.15,2013-04-03 06:29:00,
2013-04-02 23:36:00,45.8,45.3,30.17,NE,56,3.0,7.0,98,0.00,,,0.01,Wunderground v.1.15,2013-04-03 06:36:00,
2013-04-02 23:41:00,45.7,45.2,30.17,ENE,57,4.0,4.0,98,0.00,,,0.01,Wunderground v.1.15,2013-04-03 06:41:00,
2013-04-02 23:47:00,45.7,45.2,30.17,ENE,58,4.0,7.0,98,0.00,,,0.01,Wunderground v.1.15,2013-04-03 06:47:00,
2013-04-02 23:53:00,45.7,45.2,30.16,ENE,59,4.0,7.0,98,0.00,,,0.01,Wunderground v.1.15,2013-04-03 06:53:00,
2013-04-02 23:58:00,45.8,45.3,30.16,NE,34,3.0,7.0,98,0.00,,,0.01,Wunderground v.1.15,2013-04-03 06:58:00,